Time;durP1;ratioP1;P1;durP2;ratioP2;P2;SDS_P1;SDS_P2;PMS_P1;PMS_P2;Temp;Humidity;BMP_temperature;BMP_pressure;BME280_temperature;BME280_humidity;BME280_pressure;Samples;Min_cycle;Max_cycle;Signal;HPM_P1;HPM_P2
2021/01/05 00:00:18;;;;;;;4.40;4.00;;;3.10;99.90;;;;;;5094956;28;20372;-70
2021/01/05 00:02:44;;;;;;;6.60;4.07;;;3.10;99.90;;;;;;5094906;28;20194;-69
2021/01/05 00:05:11;;;;;;;5.28;3.90;;;3.10;99.90;;;;;;5094192;28;20115;-68
2021/01/05 00:07:36;;;;;;;5.78;4.20;;;3.10;99.90;;;;;;5094814;28;20360;-69
2021/01/05 00:10:05;;;;;;;4.60;3.90;;;3.10;99.90;;;;;;5094441;28;20020;-69
2021/01/05 00:12:30;;;;;;;5.90;4.40;;;3.10;99.90;;;;;;5084208;28;20027;-68
2021/01/05 00:14:56;;;;;;;4.70;4.10;;;3.10;99.90;;;;;;5078398;28;20021;-68
2021/01/05 00:17:22;;;;;;;4.80;3.85;;;3.10;99.90;;;;;;5079958;28;20038;-68
2021/01/05 00:19:49;;;;;;;8.00;4.03;;;3.10;99.90;;;;;;5093999;28;20115;-67
2021/01/05 00:22:16;;;;;;;5.10;4.07;;;3.10;99.90;;;;;;5093718;28;20043;-68
2021/01/05 00:24:42;;;;;;;6.60;3.95;;;3.00;99.90;;;;;;5094454;28;20020;-67
2021/01/05 00:27:08;;;;;;;6.60;4.15;;;3.00;99.90;;;;;;5093268;28;20028;-68
2021/01/05 00:29:34;;;;;;;4.55;3.90;;;3.00;99.90;;;;;;5093797;28;20052;-68
2021/01/05 00:32:21;;;;;;;4.55;4.03;;;3.00;99.90;;;;;;5093883;28;20480;-68
2021/01/05 00:34:47;;;;;;;6.50;3.88;;;3.00;99.90;;;;;;5094317;28;20039;-68
2021/01/05 00:37:14;;;;;;;5.47;4.15;;;3.10;99.90;;;;;;5093580;28;20036;-68
2021/01/05 00:39:40;;;;;;;6.35;4.15;;;3.10;99.90;;;;;;5093230;28;20024;-68
2021/01/05 00:42:06;;;;;;;3.88;3.53;;;3.00;99.90;;;;;;5093913;28;20031;-68
2021/01/05 00:44:31;;;;;;;5.60;4.05;;;3.00;99.90;;;;;;5092941;28;20012;-68
2021/01/05 00:46:57;;;;;;;5.47;4.03;;;3.10;99.90;;;;;;5093191;28;20104;-68
2021/01/05 00:49:22;;;;;;;4.32;3.92;;;3.10;99.90;;;;;;5093660;28;20384;-68
2021/01/05 00:51:48;;;;;;;6.40;3.90;;;3.10;99.90;;;;;;5093754;28;20099;-68
2021/01/05 00:54:14;;;;;;;6.53;3.95;;;3.10;99.90;;;;;;5092663;28;20436;-68
2021/01/05 00:56:40;;;;;;;4.03;3.63;;;3.20;99.90;;;;;;5093518;28;20163;-68
2021/01/05 00:59:06;;;;;;;4.30;3.90;;;3.10;99.90;;;;;;5093568;28;20039;-69
2021/01/05 01:01:32;;;;;;;4.05;3.65;;;3.10;99.90;;;;;;5092366;28;20078;-69
2021/01/05 01:03:58;;;;;;;4.75;4.35;;;3.10;99.90;;;;;;5092868;28;20055;-68
2021/01/05 01:06:24;;;;;;;5.45;4.72;;;3.20;99.90;;;;;;5093538;28;20136;-69
2021/01/05 01:08:50;;;;;;;5.70;4.38;;;3.20;99.90;;;;;;5093002;28;20091;-69
2021/01/05 01:11:16;;;;;;;5.38;4.13;;;3.20;99.90;;;;;;5093199;28;20056;-69
2021/01/05 01:13:41;;;;;;;5.40;3.95;;;3.10;99.90;;;;;;5089463;28;20028;-68
2021/01/05 01:16:07;;;;;;;5.63;4.30;;;3.10;99.90;;;;;;5082757;28;20028;-69
2021/01/05 01:18:33;;;;;;;5.20;4.65;;;3.10;99.90;;;;;;5093261;28;20047;-69
2021/01/05 01:20:59;;;;;;;4.20;3.88;;;3.10;99.90;;;;;;5093161;28;20020;-69
2021/01/05 01:23:25;;;;;;;4.63;4.22;;;3.10;99.90;;;;;;5092611;28;20086;-69
2021/01/05 01:25:50;;;;;;;5.03;4.32;;;3.10;99.90;;;;;;5093080;28;20024;-69
2021/01/05 01:28:16;;;;;;;5.40;4.60;;;3.10;99.90;;;;;;5092617;28;20081;-69
2021/01/05 01:30:42;;;;;;;5.57;4.60;;;3.10;99.90;;;;;;5093132;28;20396;-69
2021/01/05 01:33:07;;;;;;;5.20;4.70;;;3.10;99.90;;;;;;5093527;28;20085;-69
2021/01/05 01:35:33;;;;;;;5.35;4.30;;;3.10;99.90;;;;;;5092175;28;20024;-69
2021/01/05 01:37:59;;;;;;;5.05;4.55;;;3.20;99.90;;;;;;5093145;28;20062;-68
2021/01/05 01:40:43;;;;;;;3.55;3.25;;;3.20;99.90;;;;;;5092958;28;20032;-67
2021/01/05 01:43:09;;;;;;;4.60;4.07;;;3.20;99.90;;;;;;5080655;28;20071;-69
2021/01/05 01:45:35;;;;;;;5.93;4.80;;;3.20;99.90;;;;;;5092780;28;20049;-68
2021/01/05 01:48:07;;;;;;;4.38;3.95;;;3.20;99.90;;;;;;5093320;28;20024;-68
2021/01/05 01:50:34;;;;;;;5.22;4.72;;;3.20;99.90;;;;;;5092156;28;20066;-68
2021/01/05 01:53:02;;;;;;;5.45;3.88;;;3.20;99.90;;;;;;5092585;28;20028;-68
2021/01/05 01:56:01;;;;;;;4.38;3.83;;;3.20;99.90;;;;;;5092551;28;20084;-68
2021/01/05 01:58:38;;;;;;;5.47;4.07;;;3.10;99.90;;;;;;5080385;28;20130;-69
2021/01/05 02:01:22;;;;;;;4.60;4.20;;;3.20;99.90;;;;;;5093007;28;20027;-69
2021/01/05 02:04:21;;;;;;;4.32;3.92;;;3.10;99.90;;;;;;5092576;28;20024;-69
2021/01/05 02:07:12;;;;;;;4.82;4.38;;;3.10;99.90;;;;;;5079516;28;20032;-68
2021/01/05 02:10:04;;;;;;;5.25;4.60;;;3.10;99.90;;;;;;5090635;28;20024;-68
2021/01/05 02:12:49;;;;;;;4.45;4.05;;;3.20;99.90;;;;;;5091736;28;20119;-69
2021/01/05 02:15:27;;;;;;;4.13;3.83;;;3.20;99.90;;;;;;5077694;28;20028;-69
2021/01/05 02:18:05;;;;;;;4.70;4.30;;;3.20;99.90;;;;;;5091869;28;20202;-68
2021/01/05 02:20:48;;;;;;;5.07;3.67;;;3.10;99.90;;;;;;5092067;28;20051;-69
2021/01/05 02:23:30;;;;;;;4.50;4.10;;;3.20;99.90;;;;;;5092365;28;20147;-68
2021/01/05 02:26:17;;;;;;;4.38;3.55;;;3.20;99.90;;;;;;5078240;28;20067;-68
2021/01/05 02:28:50;;;;;;;4.78;4.03;;;3.20;99.90;;;;;;5080281;28;20035;-68
2021/01/05 02:31:24;;;;;;;4.45;4.05;;;3.20;99.90;;;;;;5071920;28;20033;-68
2021/01/05 02:34:21;;;;;;;4.85;4.07;;;3.20;99.90;;;;;;5077214;28;20076;-69
2021/01/05 02:36:59;;;;;;;4.47;4.07;;;3.20;99.90;;;;;;5086521;28;20048;-69
2021/01/05 02:39:39;;;;;;;6.20;4.78;;;3.20;99.90;;;;;;5084422;28;20058;-69
2021/01/05 02:42:33;;;;;;;4.82;4.43;;;3.20;99.90;;;;;;5092491;28;20024;-69
2021/01/05 02:45:04;;;;;;;4.80;4.32;;;3.20;99.90;;;;;;5089241;28;20039;-69
2021/01/05 02:47:39;;;;;;;5.28;4.78;;;3.20;99.90;;;;;;5080628;28;20487;-69
2021/01/05 02:50:21;;;;;;;7.45;5.03;;;3.20;99.90;;;;;;5092354;28;20031;-69
2021/01/05 02:53:14;;;;;;;5.20;4.60;;;3.20;99.90;;;;;;5091224;28;20521;-69
2021/01/05 02:56:23;;;;;;;5.15;4.65;;;3.10;99.90;;;;;;5091854;28;20028;-68
2021/01/05 02:59:04;;;;;;;4.70;4.30;;;3.10;99.90;;;;;;5091658;28;20055;-69
2021/01/05 03:01:30;;;;;;;5.43;4.65;;;3.10;99.90;;;;;;5090720;28;20039;-68
2021/01/05 03:03:57;;;;;;;6.07;5.07;;;3.10;99.90;;;;;;5077045;28;20020;-68
2021/01/05 03:06:32;;;;;;;6.20;4.47;;;3.10;99.90;;;;;;5091087;28;20024;-68
2021/01/05 03:09:12;;;;;;;5.30;4.80;;;3.00;99.90;;;;;;5090967;28;20024;-68
2021/01/05 03:11:43;;;;;;;5.00;4.13;;;3.10;99.90;;;;;;5091644;28;20104;-68
2021/01/05 03:14:23;;;;;;;5.47;4.97;;;3.10;99.90;;;;;;5090517;28;20107;-69
2021/01/05 03:17:00;;;;;;;5.63;5.00;;;3.10;99.90;;;;;;5091584;28;20028;-68
2021/01/05 03:19:51;;;;;;;4.95;4.45;;;3.10;99.90;;;;;;5091132;28;20052;-68
2021/01/05 03:22:22;;;;;;;5.43;4.93;;;3.10;99.90;;;;;;5090067;28;20050;-68
2021/01/05 03:24:48;;;;;;;;;;;3.10;99.90;;;;;;5091455;28;20040;-68
2021/01/05 03:27:15;;;;;;;5.82;4.97;;;3.20;99.90;;;;;;5090730;28;19908;-68
2021/01/05 03:29:41;;;;;;;5.50;5.00;;;3.10;99.90;;;;;;5076779;28;20135;-68
2021/01/05 03:32:09;;;;;;;11.65;6.38;;;3.10;99.90;;;;;;5091224;28;20107;-69
2021/01/05 03:34:35;;;;;;;5.63;5.05;;;3.20;99.90;;;;;;5090668;28;20473;-68
2021/01/05 03:37:00;;;;;;;7.63;4.82;;;3.20;99.90;;;;;;5080877;28;20033;-69
2021/01/05 03:39:26;;;;;;;7.15;6.07;;;3.10;99.90;;;;;;5086077;28;20025;-69
2021/01/05 03:41:52;;;;;;;5.50;5.00;;;3.10;99.90;;;;;;5083725;28;20056;-69
2021/01/05 03:44:17;;;;;;;6.43;5.72;;;3.10;99.90;;;;;;5083690;28;20016;-69
2021/01/05 03:46:43;;;;;;;6.32;5.18;;;3.10;99.90;;;;;;5090921;28;20036;-69
2021/01/05 03:49:09;;;;;;;6.97;5.05;;;3.20;99.90;;;;;;5090730;28;20035;-69
2021/01/05 03:51:35;;;;;;;5.90;5.40;;;3.20;99.90;;;;;;5090533;28;20027;-69
2021/01/05 03:54:00;;;;;;;5.47;4.93;;;3.20;99.90;;;;;;5091171;28;20024;-69
2021/01/05 03:56:26;;;;;;;6.30;5.70;;;3.10;99.90;;;;;;5090241;28;20388;-69
2021/01/05 03:58:51;;;;;;;6.70;5.78;;;3.20;99.90;;;;;;5091258;28;20452;-69
2021/01/05 04:01:17;;;;;;;5.78;5.18;;;3.20;99.90;;;;;;5090864;28;20081;-69
2021/01/05 04:03:43;;;;;;;6.60;5.93;;;3.20;99.90;;;;;;5090437;28;20028;-69
2021/01/05 04:06:09;;;;;;;6.05;5.47;;;3.10;99.90;;;;;;5091205;28;20031;-69
2021/01/05 04:08:36;;;;;;;5.95;5.32;;;3.20;99.90;;;;;;5090687;28;20029;-69
2021/01/05 04:11:02;;;;;;;6.88;5.30;;;3.20;99.90;;;;;;5090641;28;20392;-69
2021/01/05 04:13:28;;;;;;;7.35;5.00;;;3.20;99.90;;;;;;5090670;28;20020;-68
2021/01/05 04:15:53;;;;;;;6.35;5.10;;;3.20;99.90;;;;;;5091131;28;20031;-68
2021/01/05 04:18:19;;;;;;;5.70;4.85;;;3.20;99.90;;;;;;5089964;28;20412;-69
2021/01/05 04:20:45;;;;;;;6.25;4.63;;;3.20;99.90;;;;;;5090656;28;20024;-69
2021/01/05 04:23:10;;;;;;;6.20;5.50;;;3.10;99.90;;;;;;5090662;28;20083;-69
2021/01/05 04:25:36;;;;;;;6.72;5.30;;;3.20;99.90;;;;;;5089955;28;20107;-69
2021/01/05 04:28:02;;;;;;;6.68;4.93;;;3.10;99.90;;;;;;5090642;28;20463;-69
2021/01/05 04:30:33;;;;;;;5.60;4.97;;;3.10;99.90;;;;;;5090159;28;20047;-69
2021/01/05 04:33:03;;;;;;;6.63;5.95;;;3.10;99.90;;;;;;5090126;28;20028;-68
2021/01/05 04:35:28;;;;;;;6.45;5.82;;;3.10;99.90;;;;;;5090594;28;20405;-69
2021/01/05 04:37:54;;;;;;;5.68;5.07;;;3.10;99.90;;;;;;5078706;28;20126;-68
2021/01/05 04:40:42;;;;;;;4.70;4.25;;;3.10;99.90;;;;;;5093661;28;20039;-69
2021/01/05 04:43:36;;;;;;;6.80;5.15;;;3.20;99.90;;;;;;5094216;28;20019;-69
2021/01/05 04:46:46;;;;;;;5.55;4.97;;;3.20;99.90;;;;;;5093483;28;20067;-69
2021/01/05 04:49:42;;;;;;;5.45;4.95;;;3.20;99.90;;;;;;5085815;28;20063;-69
2021/01/05 04:52:12;;;;;;;5.22;4.72;;;3.20;99.90;;;;;;5081827;28;20139;-69
2021/01/05 04:55:12;;;;;;;6.32;5.65;;;3.20;99.90;;;;;;5092993;28;20024;-69
2021/01/05 04:57:38;;;;;;;;;;;3.20;99.90;;;;;;5093846;28;20102;-67
2021/01/05 05:00:06;;;;;;;5.70;4.60;;;3.30;99.90;;;;;;5093196;28;20391;-69
2021/01/05 05:02:50;;;;;;;5.55;4.88;;;3.20;99.90;;;;;;5093718;28;20138;-70
2021/01/05 05:05:35;;;;;;;7.63;4.80;;;3.30;99.90;;;;;;5093755;28;20058;-67
2021/01/05 05:08:14;;;;;;;5.82;5.22;;;3.30;99.90;;;;;;5093243;28;20024;-68
2021/01/05 05:10:56;;;;;;;6.28;5.07;;;3.20;99.90;;;;;;5093757;28;20031;-68
2021/01/05 05:13:38;;;;;;;7.32;5.63;;;3.20;99.90;;;;;;5093038;28;20020;-68
2021/01/05 05:16:26;;;;;;;6.85;5.68;;;3.20;99.90;;;;;;5093878;28;20031;-68
2021/01/05 05:19:19;;;;;;;8.30;5.90;;;3.20;99.90;;;;;;5093549;28;20508;-68
2021/01/05 05:21:54;;;;;;;8.15;5.93;;;3.20;99.90;;;;;;5092899;28;20094;-68
2021/01/05 05:24:29;;;;;;;8.00;6.40;;;3.20;99.90;;;;;;5080333;28;20043;-68
2021/01/05 05:27:04;;;;;;;6.03;5.40;;;3.20;99.90;;;;;;5093617;28;20032;-69
2021/01/05 05:29:29;;;;;;;7.07;5.68;;;3.20;99.90;;;;;;5092755;28;20112;-68
2021/01/05 05:31:58;;;;;;;7.57;6.32;;;3.30;99.90;;;;;;5093587;28;20111;-68
2021/01/05 05:34:56;;;;;;;13.70;6.28;;;3.20;99.90;;;;;;5093081;28;20088;-68
2021/01/05 05:37:29;;;;;;;9.02;5.22;;;3.20;99.90;;;;;;5079508;28;20048;-68
2021/01/05 05:40:19;;;;;;;9.38;6.93;;;3.20;99.90;;;;;;5092689;28;20352;-68
2021/01/05 05:43:20;;;;;;;7.57;6.47;;;3.20;99.90;;;;;;5092648;28;20043;-69
2021/01/05 05:46:14;;;;;;;9.32;6.78;;;3.20;99.90;;;;;;5093401;28;20487;-68
2021/01/05 05:48:55;;;;;;;10.27;7.60;;;3.30;99.90;;;;;;5083113;28;20054;-68
2021/01/05 05:51:35;;;;;;;10.05;7.10;;;3.30;99.90;;;;;;5092572;28;20020;-68
2021/01/05 05:54:14;;;;;;;;;;;3.30;99.90;;;;;;5093523;28;20366;-68
2021/01/05 05:56:57;;;;;;;11.18;7.57;;;3.20;99.90;;;;;;5091866;28;19938;-68
2021/01/05 05:59:54;;;;;;;8.82;6.75;;;3.30;99.90;;;;;;5092750;28;20032;-68
2021/01/05 06:02:22;;;;;;;9.10;7.00;;;3.30;99.90;;;;;;5080121;28;20051;-68
2021/01/05 06:04:49;;;;;;;9.60;6.32;;;3.30;99.90;;;;;;5091884;28;20077;-68
2021/01/05 06:07:15;;;;;;;11.43;7.13;;;3.30;99.90;;;;;;5092414;28;20488;-69
2021/01/05 06:09:40;;;;;;;10.32;6.72;;;3.30;99.90;;;;;;5092466;28;20035;-71
2021/01/05 06:12:07;;;;;;;11.65;7.38;;;3.30;99.90;;;;;;5093148;28;20016;-70
2021/01/05 06:14:33;;;;;;;10.27;6.47;;;3.30;99.90;;;;;;5092270;28;20519;-70
2021/01/05 06:16:58;;;;;;;11.60;8.00;;;3.30;99.90;;;;;;5091378;28;20040;-69
2021/01/05 06:19:24;;;;;;;14.10;7.78;;;3.30;99.90;;;;;;5091739;28;20102;-69
2021/01/05 06:21:50;;;;;;;11.60;7.93;;;3.30;99.90;;;;;;5091763;28;20147;-69
2021/01/05 06:24:15;;;;;;;10.20;7.10;;;3.30;99.90;;;;;;5091822;28;20024;-69
2021/01/05 06:26:41;;;;;;;11.25;7.97;;;3.30;99.90;;;;;;5080369;28;20042;-69
2021/01/05 06:29:06;;;;;;;9.45;7.30;;;3.30;99.90;;;;;;5075443;28;20025;-68
2021/01/05 06:31:32;;;;;;;10.70;8.10;;;3.30;99.90;;;;;;5070737;28;20020;-69
2021/01/05 06:33:57;;;;;;;12.10;8.10;;;3.30;99.90;;;;;;5071712;28;20013;-69
2021/01/05 06:36:23;;;;;;;12.07;7.40;;;3.30;99.90;;;;;;5071403;28;20127;-69
2021/01/05 06:38:49;;;;;;;10.38;7.43;;;3.30;99.90;;;;;;5077988;28;20066;-69
2021/01/05 06:41:15;;;;;;;11.48;8.32;;;3.30;99.90;;;;;;5071659;28;20048;-68
2021/01/05 06:43:41;;;;;;;10.75;7.43;;;3.20;99.90;;;;;;5071716;28;20357;-68
2021/01/05 06:46:08;;;;;;;11.60;7.47;;;3.30;99.90;;;;;;5071024;28;20021;-70
2021/01/05 06:48:35;;;;;;;11.25;7.82;;;3.30;99.90;;;;;;5074246;28;20020;-69
2021/01/05 06:51:01;;;;;;;9.52;7.28;;;3.30;99.90;;;;;;5071374;28;20021;-70
2021/01/05 06:53:27;;;;;;;11.65;8.40;;;3.20;99.90;;;;;;5070699;28;20029;-67
2021/01/05 06:55:52;;;;;;;9.05;7.07;;;3.20;99.90;;;;;;5086250;28;20031;-69
2021/01/05 06:58:18;;;;;;;8.93;7.10;;;3.30;99.90;;;;;;5086145;28;20138;-68
2021/01/05 07:00:43;;;;;;;10.45;7.68;;;3.20;99.90;;;;;;5087864;28;20027;-69
2021/01/05 07:03:09;;;;;;;9.75;6.82;;;3.30;99.90;;;;;;5088862;28;20055;-68
2021/01/05 07:05:34;;;;;;;11.65;8.00;;;3.20;99.90;;;;;;5085673;28;20159;-68
2021/01/05 07:08:00;;;;;;;10.18;8.10;;;3.30;99.90;;;;;;5081952;28;20077;-68
2021/01/05 07:10:25;;;;;;;9.95;7.53;;;3.20;99.90;;;;;;5089605;28;20024;-69
2021/01/05 07:12:51;;;;;;;10.95;7.72;;;3.30;99.90;;;;;;5082737;28;20028;-68
2021/01/05 07:15:18;;;;;;;11.57;8.48;;;3.20;99.90;;;;;;5085091;28;20120;-68
2021/01/05 07:17:44;;;;;;;13.32;9.13;;;3.30;99.90;;;;;;5088661;28;20131;-68
2021/01/05 07:20:11;;;;;;;13.70;8.10;;;3.20;99.90;;;;;;5087408;28;20034;-68
2021/01/05 07:22:37;;;;;;;13.23;8.27;;;3.20;99.90;;;;;;5084400;28;20060;-68
2021/01/05 07:25:05;;;;;;;12.40;8.85;;;3.20;99.90;;;;;;5072611;28;20044;-68
2021/01/05 07:27:30;;;;;;;9.52;7.47;;;3.20;99.90;;;;;;5074098;28;20036;-68
2021/01/05 07:29:56;;;;;;;16.77;10.90;;;3.10;99.90;;;;;;5084823;28;20020;-68
2021/01/05 07:32:22;;;;;;;14.82;9.27;;;3.10;99.90;;;;;;5085713;28;20040;-68
2021/01/05 07:34:48;;;;;;;14.52;8.77;;;3.20;99.90;;;;;;5087403;28;20035;-69
2021/01/05 07:37:20;;;;;;;12.68;8.00;;;3.20;99.90;;;;;;5085880;28;20036;-68
2021/01/05 07:39:46;;;;;;;13.73;9.25;;;3.20;99.90;;;;;;5082442;28;20090;-68
2021/01/05 07:42:17;;;;;;;16.05;9.48;;;3.20;99.90;;;;;;5080966;28;20510;-68
2021/01/05 07:44:44;;;;;;;15.05;8.85;;;3.20;99.90;;;;;;5087651;28;20020;-68
2021/01/05 07:47:10;;;;;;;20.52;10.30;;;3.20;99.90;;;;;;5087777;28;20032;-68
2021/01/05 07:49:36;;;;;;;14.75;8.55;;;3.20;99.90;;;;;;5088271;28;20054;-67
2021/01/05 07:52:20;;;;;;;14.63;9.57;;;3.20;99.90;;;;;;5088557;28;20028;-67
2021/01/05 07:54:46;;;;;;;14.98;8.55;;;3.20;99.90;;;;;;5075958;28;20025;-67
2021/01/05 07:57:11;;;;;;;12.10;8.38;;;3.30;99.90;;;;;;5087831;28;20119;-69
2021/01/05 07:59:38;;;;;;;14.85;10.05;;;3.30;99.90;;;;;;5088743;28;20023;-67
2021/01/05 08:02:04;;;;;;;16.92;10.25;;;3.30;99.90;;;;;;5089317;28;20128;-67
2021/01/05 08:04:29;;;;;;;10.68;8.40;;;3.20;99.90;;;;;;5089443;28;20028;-67
2021/01/05 08:06:55;;;;;;;13.38;9.32;;;3.20;99.90;;;;;;5089905;28;20067;-67
2021/01/05 08:09:20;;;;;;;11.45;8.65;;;3.30;99.90;;;;;;5088217;28;20020;-67
2021/01/05 08:11:46;;;;;;;14.15;9.20;;;3.30;99.90;;;;;;5083255;28;20061;-67
2021/01/05 08:14:11;;;;;;;13.02;8.38;;;3.30;99.90;;;;;;5078383;28;20039;-67
2021/01/05 08:16:37;;;;;;;12.68;8.68;;;3.30;99.90;;;;;;5083964;28;20035;-67
2021/01/05 08:19:03;;;;;;;10.68;8.32;;;3.30;99.90;;;;;;5075310;28;20016;-70
2021/01/05 08:21:28;;;;;;;11.98;8.57;;;3.30;99.90;;;;;;5074807;28;20086;-67
2021/01/05 08:23:54;;;;;;;13.80;9.45;;;3.30;99.90;;;;;;5079473;28;20028;-67
2021/01/05 08:26:20;;;;;;;12.52;8.45;;;3.30;99.90;;;;;;5085683;28;20528;-66
2021/01/05 08:28:46;;;;;;;14.73;9.65;;;3.30;99.90;;;;;;5077418;28;20031;-67
2021/01/05 08:31:13;;;;;;;11.57;9.10;;;3.30;99.90;;;;;;5083538;28;20044;-66
2021/01/05 08:33:39;;;;;;;13.23;9.45;;;3.30;99.90;;;;;;5074588;28;20029;-67
2021/01/05 08:36:04;;;;;;;12.35;8.45;;;3.40;99.90;;;;;;5074638;28;20020;-66
2021/01/05 08:38:30;;;;;;;16.88;9.75;;;3.30;99.90;;;;;;5082125;28;20121;-67
2021/01/05 08:40:56;;;;;;;16.20;9.98;;;3.40;99.90;;;;;;5095446;28;20077;-69
2021/01/05 08:43:21;;;;;;;13.45;9.57;;;3.40;99.90;;;;;;5094659;28;20048;-68
2021/01/05 08:45:47;;;;;;;15.95;9.52;;;3.40;99.90;;;;;;5094717;28;20692;-67
2021/01/05 08:48:13;;;;;;;12.75;8.95;;;3.40;99.90;;;;;;5094854;28;20104;-68
2021/01/05 08:50:38;;;;;;;15.77;9.85;;;3.40;99.90;;;;;;5094884;28;20138;-68
2021/01/05 08:53:12;;;;;;;15.98;10.20;;;3.50;99.90;;;;;;5093992;28;20024;-68
2021/01/05 08:55:40;;;;;;;16.40;10.00;;;3.50;99.90;;;;;;5094454;28;20384;-68
2021/01/05 08:58:06;;;;;;;14.90;10.40;;;3.50;99.90;;;;;;5086682;28;20574;-67
2021/01/05 09:00:32;;;;;;;13.98;9.52;;;3.50;99.90;;;;;;5083233;28;20017;-68
2021/01/05 09:02:58;;;;;;;15.63;9.65;;;3.50;99.90;;;;;;5083099;28;20028;-67
2021/01/05 09:05:24;;;;;;;16.55;9.57;;;3.60;99.90;;;;;;5076521;28;20365;-67
2021/01/05 09:07:50;;;;;;;15.07;9.88;;;3.60;99.90;;;;;;5093101;28;20031;-68
2021/01/05 09:10:22;;;;;;;15.00;10.32;;;3.60;99.90;;;;;;5090585;28;20016;-68
2021/01/05 09:12:48;;;;;;;16.85;9.98;;;3.60;99.90;;;;;;5093260;28;20028;-68
2021/01/05 09:15:15;;;;;;;16.83;10.18;;;3.60;99.90;;;;;;5093906;28;20489;-67
2021/01/05 09:17:46;;;;;;;14.02;10.05;;;3.70;99.90;;;;;;5094468;28;20047;-67
2021/01/05 09:20:22;;;;;;;13.60;9.85;;;3.70;99.90;;;;;;5093651;28;20113;-67
2021/01/05 09:22:48;;;;;;;17.02;11.07;;;3.70;99.90;;;;;;5093620;28;20461;-67
2021/01/05 09:25:15;;;;;;;17.60;10.50;;;3.70;99.90;;;;;;5080794;28;20034;-67
2021/01/05 09:27:40;;;;;;;16.48;10.40;;;3.70;99.90;;;;;;5091917;28;20073;-68
2021/01/05 09:30:12;;;;;;;16.55;10.95;;;3.70;99.90;;;;;;5093838;28;20020;-67
2021/01/05 09:32:37;;;;;;;13.70;10.35;;;3.70;99.90;;;;;;5093930;28;20078;-67
2021/01/05 09:35:05;;;;;;;16.30;10.90;;;3.70;99.90;;;;;;5092921;28;20023;-67
2021/01/05 09:37:30;;;;;;;18.92;10.25;;;3.70;99.90;;;;;;5093602;28;20402;-67
2021/01/05 09:39:56;;;;;;;16.75;11.27;;;3.70;99.90;;;;;;5087259;28;20190;-68
2021/01/05 09:42:22;;;;;;;16.73;9.98;;;3.70;99.90;;;;;;5083611;28;20380;-67
2021/01/05 09:44:48;;;;;;;15.98;10.90;;;3.80;99.90;;;;;;5080141;28;20395;-67
2021/01/05 09:47:19;;;;;;;21.50;11.13;;;3.80;99.90;;;;;;5087233;28;20400;-67
2021/01/05 09:49:45;;;;;;;19.05;11.93;;;3.90;99.90;;;;;;5080036;28;20099;-67
2021/01/05 09:52:10;;;;;;;18.88;11.95;;;3.80;99.90;;;;;;5073095;28;20082;-67
2021/01/05 09:54:36;;;;;;;15.32;9.82;;;3.80;99.90;;;;;;5073181;28;20025;-67
2021/01/05 09:57:01;;;;;;;16.77;11.02;;;3.90;99.90;;;;;;5072251;28;20094;-67
2021/01/05 09:59:27;;;;;;;18.75;11.85;;;3.90;99.90;;;;;;5078268;28;20020;-67
2021/01/05 10:01:54;;;;;;;17.80;11.30;;;3.90;99.90;;;;;;5092816;28;20072;-67
2021/01/05 10:04:20;;;;;;;18.52;11.90;;;4.00;99.90;;;;;;5093004;28;20088;-66
2021/01/05 10:06:45;;;;;;;18.67;11.52;;;4.00;99.90;;;;;;5093247;28;20110;-69
2021/01/05 10:09:11;;;;;;;16.83;11.65;;;3.90;99.90;;;;;;5092794;28;20056;-68
2021/01/05 10:11:42;;;;;;;20.05;11.77;;;4.00;99.90;;;;;;5093065;28;20380;-69
2021/01/05 10:14:10;;;;;;;18.65;11.48;;;4.00;99.90;;;;;;5093309;28;20020;-66
2021/01/05 10:16:36;;;;;;;20.50;12.13;;;4.00;99.90;;;;;;5089478;28;20048;-67
2021/01/05 10:19:01;;;;;;;19.42;12.48;;;4.00;99.90;;;;;;5092607;28;20360;-67
2021/01/05 10:21:45;;;;;;;23.98;11.93;;;4.00;99.90;;;;;;5075634;28;20043;-67
2021/01/05 10:24:12;;;;;;;17.73;11.85;;;4.10;99.90;;;;;;5089557;28;20115;-67
2021/01/05 10:26:38;;;;;;;18.55;11.38;;;4.10;99.90;;;;;;5072835;28;20050;-67
2021/01/05 10:29:05;;;;;;;17.92;10.90;;;4.20;99.90;;;;;;5091132;28;20526;-66
2021/01/05 10:31:42;;;;;;;17.83;11.57;;;4.20;99.90;;;;;;5091882;28;20020;-67
2021/01/05 10:34:10;;;;;;;14.20;10.20;;;4.30;99.90;;;;;;5079696;28;20055;-67
2021/01/05 10:36:36;;;;;;;15.55;10.30;;;4.30;99.90;;;;;;5085999;28;20033;-67
2021/01/05 10:39:02;;;;;;;13.30;9.65;;;4.40;99.90;;;;;;5084083;28;20639;-67
2021/01/05 10:41:32;;;;;;;15.25;10.10;;;4.40;99.90;;;;;;5092333;28;20472;-67
2021/01/05 10:43:58;;;;;;;14.27;9.77;;;4.50;99.90;;;;;;5091990;28;20039;-67
2021/01/05 10:46:24;;;;;;;15.63;9.82;;;4.50;99.90;;;;;;5092153;28;20035;-67
2021/01/05 10:48:49;;;;;;;12.93;9.30;;;4.50;99.90;;;;;;5078586;28;20026;-67
2021/01/05 10:51:15;;;;;;;13.20;8.82;;;4.40;99.90;;;;;;5091687;28;20112;-68
2021/01/05 10:53:40;;;;;;;10.80;8.23;;;4.40;99.90;;;;;;5080962;28;20115;-67
2021/01/05 10:56:11;;;;;;;11.40;7.80;;;4.50;99.90;;;;;;5092799;28;20107;-67
2021/01/05 10:58:37;;;;;;;14.45;7.78;;;4.40;99.90;;;;;;5091292;28;20036;-67
2021/01/05 11:01:02;;;;;;;12.55;8.82;;;4.40;99.90;;;;;;5092425;28;20077;-67
2021/01/05 11:03:28;;;;;;;12.13;8.98;;;4.40;99.90;;;;;;5080652;28;20419;-68
2021/01/05 11:05:54;;;;;;;10.18;6.90;;;4.40;99.90;;;;;;5071227;28;20430;-68
2021/01/05 11:08:19;;;;;;;12.70;8.82;;;4.40;99.90;;;;;;5088846;28;20024;-68
2021/01/05 11:10:45;;;;;;;14.13;9.07;;;4.40;99.90;;;;;;5090762;28;20052;-68
2021/01/05 11:13:10;;;;;;;12.38;8.52;;;4.40;99.90;;;;;;5091805;28;20016;-68
2021/01/05 11:15:36;;;;;;;13.00;8.55;;;4.30;99.90;;;;;;5092094;28;20028;-68
2021/01/05 11:18:01;;;;;;;13.80;8.73;;;4.40;99.90;;;;;;5094317;28;20464;-67
2021/01/05 11:20:27;;;;;;;12.20;8.88;;;4.40;99.90;;;;;;5093607;28;20032;-68
2021/01/05 11:22:52;;;;;;;13.07;8.43;;;4.40;99.90;;;;;;5084449;28;20109;-68
2021/01/05 11:25:19;;;;;;;12.05;8.07;;;4.40;99.90;;;;;;5076194;28;20423;-68
2021/01/05 11:27:45;;;;;;;12.90;8.70;;;4.40;99.90;;;;;;5071858;28;20047;-68
2021/01/05 11:30:18;;;;;;;10.02;7.70;;;4.40;99.90;;;;;;5078416;28;20476;-68
2021/01/05 11:32:43;;;;;;;11.18;8.30;;;4.40;99.90;;;;;;5071675;28;20028;-68
2021/01/05 11:35:10;;;;;;;10.02;7.53;;;4.50;99.90;;;;;;5070945;28;20029;-68
2021/01/05 11:37:35;;;;;;;10.60;7.30;;;4.40;99.90;;;;;;5071271;28;20393;-68
2021/01/05 11:40:02;;;;;;;9.63;7.43;;;4.50;99.90;;;;;;5092085;28;20012;-68
2021/01/05 11:42:28;;;;;;;10.07;7.28;;;4.50;99.90;;;;;;5090509;28;20166;-68
2021/01/05 11:44:53;;;;;;;9.25;7.22;;;4.50;99.90;;;;;;5091602;28;20502;-68
2021/01/05 11:47:21;;;;;;;9.95;6.85;;;4.50;99.90;;;;;;5088682;28;20082;-68
2021/01/05 11:49:48;;;;;;;9.25;7.47;;;4.50;99.90;;;;;;5086858;28;20472;-67
2021/01/05 11:52:13;;;;;;;8.82;7.35;;;4.50;99.90;;;;;;5086065;28;20502;-67
2021/01/05 11:54:39;;;;;;;11.80;7.72;;;4.50;99.90;;;;;;5092512;28;20028;-69
2021/01/05 11:57:05;;;;;;;8.63;7.30;;;4.60;99.90;;;;;;5075585;28;20086;-70
2021/01/05 11:59:31;;;;;;;9.85;7.43;;;4.60;99.90;;;;;;5081285;28;20029;-67
2021/01/05 12:01:57;;;;;;;9.95;7.75;;;4.60;99.90;;;;;;5090963;28;20043;-68
2021/01/05 12:04:23;;;;;;;11.73;7.63;;;4.60;99.90;;;;;;5074609;28;20031;-68
2021/01/05 12:06:53;;;;;;;8.65;6.93;;;4.60;99.90;;;;;;5074840;28;20528;-68
2021/01/05 12:09:20;;;;;;;8.50;6.72;;;4.60;99.90;;;;;;5073835;28;20093;-68
2021/01/05 12:11:46;;;;;;;10.40;6.60;;;4.40;99.90;;;;;;5075471;28;20459;-66
2021/01/05 12:14:14;;;;;;;7.30;5.90;;;4.50;99.90;;;;;;5074595;28;20020;-68
2021/01/05 12:16:48;;;;;;;9.13;5.80;;;4.40;99.90;;;;;;5074614;28;20044;-67
2021/01/05 12:19:21;;;;;;;8.27;5.90;;;4.40;99.90;;;;;;5075470;28;20017;-67
2021/01/05 12:21:46;;;;;;;7.10;5.40;;;4.30;99.90;;;;;;5074619;28;20622;-67
2021/01/05 12:24:20;;;;;;;8.60;6.38;;;4.30;99.90;;;;;;5074303;28;20112;-67
2021/01/05 12:26:46;;;;;;;5.95;5.15;;;4.30;99.90;;;;;;5074886;28;20024;-67
2021/01/05 12:29:15;;;;;;;6.25;5.13;;;4.20;99.90;;;;;;5074994;28;20032;-67
2021/01/05 12:31:43;;;;;;;6.55;5.30;;;4.10;99.90;;;;;;5074084;28;20099;-67
2021/01/05 12:34:10;;;;;;;8.50;5.47;;;4.20;99.90;;;;;;5074739;28;20538;-67
2021/01/05 12:36:38;;;;;;;8.52;4.95;;;4.20;99.90;;;;;;5081266;28;20163;-67
2021/01/05 12:39:07;;;;;;;7.68;5.13;;;4.20;99.90;;;;;;5087132;28;20035;-67
2021/01/05 12:41:36;;;;;;;6.55;5.53;;;4.20;99.90;;;;;;5094649;28;20023;-67
2021/01/05 12:44:03;;;;;;;6.32;4.97;;;4.30;99.90;;;;;;5094040;28;20385;-68
2021/01/05 12:46:32;;;;;;;9.13;5.57;;;4.20;99.90;;;;;;5094540;28;20455;-67
2021/01/05 12:48:58;;;;;;;8.82;5.70;;;4.30;99.90;;;;;;5094886;28;20076;-68
2021/01/05 12:51:36;;;;;;;6.32;5.15;;;4.30;99.90;;;;;;5093494;28;20464;-67
2021/01/05 12:54:02;;;;;;;5.53;4.88;;;4.20;99.90;;;;;;5094852;28;20487;-67
2021/01/05 12:56:28;;;;;;;7.70;5.55;;;4.20;99.90;;;;;;5092550;28;20059;-67
2021/01/05 12:58:54;;;;;;;10.70;6.53;;;4.20;99.90;;;;;;5080104;28;20430;-67
2021/01/05 13:01:21;;;;;;;8.93;5.78;;;4.20;99.90;;;;;;5094281;28;20028;-67
2021/01/05 13:03:47;;;;;;;9.82;5.32;;;4.20;99.90;;;;;;5083854;28;20044;-67
2021/01/05 13:06:14;;;;;;;8.88;5.97;;;4.30;99.90;;;;;;5080781;28;20051;-67